首页
METAR-TAF:

METAR-TAF

机场 :

达喀尔-约夫-利奥波德·塞达尔·桑戈尔国际机场

達喀爾, 塞内加尔

纬度: 14-44N, 经度: 017-30W, 海拔: 27米

当前天气观测

该预报发布于37分钟前的11:00 UTC
风速8节,风向
温度 19°C
湿度 88%
气压 1015 hPa
能见度10公里或以上
1500米以下无云,无积雨云

METAR: GOOY 241100Z 36008KT CAVOK 19/17 Q1015

时间: 11:37 (11:37 UTC)

预报

该预报发布于6小时和7分钟前的05:30 UTC
预报有效从24日的 06点(UTC)到 25日的 12点(UTC)
风速12节,风向
能见度10公里或以上
1500米以下无云,无积雨云

TAF: GOOY 240530Z 2406/2512 36012KT CAVOK

超过4000个机场的气象观测和天气预报(METAR&TAF报告)。

可查询的气象台以黄色和红色小点在地图上表示。

将鼠标移到小点上方,可查看气象台名称。

然后点击查看天气观测和预报。

如需切换地图:点击带黑十字的绿色按钮放大地图;点击带横线的绿色按钮缩小地图;或者点击绿色箭头查看邻近地区的地图。


METAR-TAF: